createdAt,value
2018-03-06T00:00:13.171Z,29.17
2018-03-06T00:02:41.834Z,37.13
2018-03-06T00:05:10.534Z,37.67
2018-03-06T00:07:39.111Z,38.08
2018-03-06T00:10:07.926Z,38.83
2018-03-06T00:12:36.781Z,35.60
2018-03-06T00:15:05.420Z,34.20
2018-03-06T00:17:33.997Z,35.50
2018-03-06T00:20:02.494Z,40.83
2018-03-06T00:22:30.997Z,41.37
2018-03-06T00:24:59.502Z,38.45
2018-03-06T00:27:28.797Z,44.08
2018-03-06T00:29:57.400Z,37.00
2018-03-06T00:32:25.875Z,36.25
2018-03-06T00:34:55.453Z,39.50
2018-03-06T00:37:24.759Z,40.00
2018-03-06T00:39:53.336Z,41.15
2018-03-06T00:42:21.889Z,42.10
2018-03-06T00:44:50.337Z,44.45
2018-03-06T00:47:18.802Z,40.67
2018-03-06T00:49:48.491Z,39.10
2018-03-06T00:52:16.968Z,42.97
2018-03-06T00:54:45.561Z,38.75
2018-03-06T00:57:14.099Z,41.83
2018-03-06T00:59:42.551Z,48.08
2018-03-06T01:02:11.063Z,43.22
2018-03-06T01:04:39.719Z,49.97
2018-03-06T01:07:08.188Z,54.30
2018-03-06T01:09:36.733Z,57.78
2018-03-06T01:12:05.275Z,56.40
2018-03-06T01:14:33.778Z,57.22
2018-03-06T01:17:03.061Z,62.67
2018-03-06T01:19:31.598Z,48.00
2018-03-06T01:22:00.059Z,45.03
2018-03-06T01:24:28.577Z,55.38
2018-03-06T01:26:57.243Z,51.50
2018-03-06T01:29:25.786Z,39.38
2018-03-06T01:31:54.344Z,44.30
2018-03-06T01:34:22.923Z,42.20
2018-03-06T01:36:51.371Z,47.45
2018-03-06T01:39:19.942Z,42.05
2018-03-06T01:41:48.523Z,42.72
2018-03-06T01:44:17.017Z,54.38
2018-03-06T01:46:45.582Z,39.38
2018-03-06T01:49:15.309Z,43.25
2018-03-06T01:51:55.674Z,46.05
2018-03-06T01:54:24.484Z,45.80
2018-03-06T01:56:52.990Z,48.00
2018-03-06T01:59:21.434Z,45.28
2018-03-06T02:01:50.796Z,45.60
2018-03-06T02:04:19.394Z,48.83
2018-03-06T02:06:47.874Z,46.35
2018-03-06T02:09:16.671Z,48.70
2018-03-06T02:11:45.253Z,53.30
2018-03-06T02:14:13.833Z,53.25
2018-03-06T02:16:42.629Z,47.50
2018-03-06T02:19:11.202Z,50.78
2018-03-06T02:21:39.992Z,48.33
2018-03-06T02:24:09.003Z,56.58
2018-03-06T02:26:37.576Z,47.28
2018-03-06T02:29:06.148Z,48.83
2018-03-06T02:31:35.712Z,58.22
2018-03-06T02:34:04.213Z,52.70
2018-03-06T02:36:32.696Z,48.58
2018-03-06T02:39:01.203Z,61.17
2018-03-06T02:41:29.683Z,53.03
2018-03-06T02:43:58.200Z,52.88
2018-03-06T02:46:27.525Z,51.08
2018-03-06T02:48:56.000Z,63.58
2018-03-06T02:51:24.525Z,52.35
2018-03-06T02:53:53.904Z,62.80
2018-03-06T02:56:22.392Z,59.88
2018-03-06T02:58:50.902Z,59.33
2018-03-06T03:01:19.801Z,50.70
2018-03-06T03:03:48.320Z,53.87
2018-03-06T03:06:17.284Z,62.78
2018-03-06T03:08:46.006Z,59.80
2018-03-06T03:11:14.506Z,59.97
2018-03-06T03:13:43.151Z,71.78
2018-03-06T03:16:11.755Z,60.83
2018-03-06T03:18:40.201Z,63.40
2018-03-06T03:21:08.652Z,53.67
2018-03-06T03:23:37.930Z,58.10
2018-03-06T03:26:06.457Z,58.63
2018-03-06T03:28:34.938Z,63.87
2018-03-06T03:31:03.455Z,57.92
2018-03-06T03:33:32.006Z,65.62
2018-03-06T03:36:00.488Z,63.10
2018-03-06T03:38:28.989Z,58.55
2018-03-06T03:40:57.450Z,58.58
2018-03-06T03:43:25.903Z,58.65
2018-03-06T03:45:54.446Z,65.07
2018-03-06T03:48:23.868Z,66.40
2018-03-06T03:50:52.370Z,60.75
2018-03-06T03:53:20.876Z,78.32
2018-03-06T03:55:50.033Z,63.92
2018-03-06T03:58:18.508Z,61.75
2018-03-06T04:00:47.445Z,71.70
2018-03-06T04:03:15.906Z,74.82
2018-03-06T04:05:44.382Z,66.75
2018-03-06T04:08:13.085Z,66.68
2018-03-06T04:10:41.712Z,60.63
2018-03-06T04:13:10.185Z,67.00
2018-03-06T04:15:38.918Z,74.72
2018-03-06T04:18:07.452Z,75.45
2018-03-06T04:20:36.447Z,59.33
2018-03-06T04:23:05.032Z,73.70
2018-03-06T04:25:37.040Z,72.45
2018-03-06T04:28:06.309Z,71.97
2018-03-06T04:30:34.872Z,64.12
2018-03-06T04:33:03.374Z,71.12
2018-03-06T04:35:31.933Z,63.92
2018-03-06T04:38:00.576Z,70.57
2018-03-06T04:40:29.042Z,67.37
2018-03-06T04:42:58.055Z,69.93
2018-03-06T04:45:26.572Z,74.20
2018-03-06T04:47:56.346Z,75.37
2018-03-06T04:50:25.172Z,69.28
2018-03-06T04:52:53.697Z,71.90
2018-03-06T04:55:22.667Z,70.22
2018-03-06T04:57:51.184Z,75.70
2018-03-06T05:00:19.666Z,77.95
2018-03-06T05:02:48.084Z,80.10
2018-03-06T05:05:16.980Z,74.25
2018-03-06T05:07:45.467Z,79.62
2018-03-06T05:10:14.007Z,79.18
2018-03-06T05:12:43.063Z,73.18
2018-03-06T05:15:11.649Z,81.28
2018-03-06T05:17:40.209Z,67.95
2018-03-06T05:20:08.910Z,74.45
2018-03-06T05:22:37.550Z,80.90
2018-03-06T05:25:06.229Z,87.75
2018-03-06T05:27:35.229Z,81.65
2018-03-06T05:30:03.760Z,80.55
2018-03-06T05:32:32.286Z,86.78
2018-03-06T05:35:00.818Z,81.70
2018-03-06T05:37:29.346Z,80.15
2018-03-06T05:39:57.785Z,91.90
2018-03-06T05:42:26.402Z,94.50
2018-03-06T05:44:54.949Z,81.57
2018-03-06T05:47:23.504Z,96.90
2018-03-06T05:49:52.044Z,101.53
2018-03-06T05:52:20.497Z,83.72
2018-03-06T05:54:48.950Z,99.45
2018-03-06T05:57:17.698Z,96.40
2018-03-06T05:59:46.270Z,87.35
2018-03-06T06:02:15.121Z,101.40
2018-03-06T06:04:43.697Z,102.97
2018-03-06T06:07:12.279Z,95.68
2018-03-06T06:09:40.922Z,84.43
2018-03-06T06:12:11.656Z,87.30
2018-03-06T06:14:40.285Z,95.70
2018-03-06T06:17:08.970Z,95.87
2018-03-06T06:19:37.738Z,99.37
2018-03-06T06:22:06.219Z,94.82
2018-03-06T06:24:34.734Z,102.00
2018-03-06T06:27:03.306Z,91.20
2018-03-06T06:29:31.751Z,95.12
2018-03-06T06:32:00.194Z,94.82
2018-03-06T06:34:28.755Z,105.63
2018-03-06T06:36:57.329Z,99.87
2018-03-06T06:39:25.776Z,98.28
2018-03-06T06:41:54.387Z,91.07
2018-03-06T06:44:22.817Z,91.15
2018-03-06T06:46:51.320Z,98.95
2018-03-06T06:49:20.112Z,99.45
2018-03-06T06:51:48.778Z,103.68
2018-03-06T06:54:17.604Z,100.05
2018-03-06T06:56:47.122Z,101.45
2018-03-06T06:59:15.777Z,90.85
2018-03-06T07:01:44.318Z,89.13
2018-03-06T07:04:14.833Z,96.30
2018-03-06T07:06:43.759Z,93.90
2018-03-06T07:09:12.491Z,97.25
2018-03-06T07:11:41.072Z,99.15
2018-03-06T07:14:09.756Z,95.05
2018-03-06T07:16:38.650Z,90.55
2018-03-06T07:19:07.546Z,92.93
2018-03-06T07:21:36.127Z,90.78
2018-03-06T07:24:04.703Z,90.65
2018-03-06T07:26:33.471Z,90.47
2018-03-06T07:29:02.017Z,88.28
2018-03-06T07:31:30.456Z,76.28
2018-03-06T07:33:59.038Z,77.12
2018-03-06T07:36:27.542Z,78.18
2018-03-06T07:38:55.974Z,76.07
2018-03-06T07:41:24.494Z,79.03
2018-03-06T07:43:52.971Z,80.60
2018-03-06T07:46:21.555Z,84.47
2018-03-06T07:48:50.119Z,66.10
2018-03-06T07:51:19.422Z,68.50
2018-03-06T07:53:47.924Z,75.37
2018-03-06T07:56:17.498Z,76.53
2018-03-06T07:58:46.080Z,79.50
2018-03-06T08:01:14.684Z,69.25
2018-03-06T08:03:45.106Z,76.28
2018-03-06T08:06:13.800Z,72.72
2018-03-06T08:08:42.585Z,72.10
2018-03-06T08:11:11.266Z,65.82
2018-03-06T08:13:39.747Z,63.15
2018-03-06T08:16:08.384Z,72.47
2018-03-06T08:18:37.121Z,69.80
2018-03-06T08:21:05.609Z,75.05
2018-03-06T08:23:34.185Z,70.07
2018-03-06T08:26:02.980Z,68.68
2018-03-06T08:28:31.582Z,70.00
2018-03-06T08:31:00.149Z,71.72
2018-03-06T08:33:29.837Z,76.07
2018-03-06T08:35:58.282Z,72.43
2018-03-06T08:38:26.825Z,67.95
2018-03-06T08:40:55.374Z,69.15
2018-03-06T08:43:23.821Z,73.47
2018-03-06T08:45:52.302Z,77.10
2018-03-06T08:48:20.829Z,81.63
2018-03-06T08:50:49.314Z,74.57
2018-03-06T08:53:17.745Z,77.80
2018-03-06T08:55:46.263Z,80.65
2018-03-06T08:58:14.748Z,84.57
2018-03-06T09:00:43.241Z,80.50
2018-03-06T09:03:12.176Z,76.80
2018-03-06T09:05:40.824Z,84.22
2018-03-06T09:08:09.491Z,83.70
2018-03-06T09:10:38.071Z,89.20
2018-03-06T09:13:06.727Z,81.85
2018-03-06T09:15:35.309Z,85.57
2018-03-06T09:18:04.702Z,80.23
2018-03-06T09:20:33.204Z,83.13
2018-03-06T09:23:01.674Z,79.23
2018-03-06T09:25:31.483Z,89.03
2018-03-06T09:27:59.968Z,84.40
2018-03-06T09:30:28.453Z,79.10
2018-03-06T09:32:56.960Z,91.77
2018-03-06T09:35:25.413Z,87.93
2018-03-06T09:37:53.846Z,86.87
2018-03-06T09:40:22.429Z,96.67
2018-03-06T09:42:50.857Z,92.77
2018-03-06T09:45:19.305Z,85.63
2018-03-06T09:47:48.053Z,92.67
2018-03-06T09:50:16.739Z,86.17
2018-03-06T09:52:45.219Z,81.20
2018-03-06T09:55:13.905Z,90.53
2018-03-06T09:57:42.528Z,85.23
2018-03-06T10:00:11.170Z,88.13
2018-03-06T10:02:39.772Z,97.43
2018-03-06T10:05:08.442Z,89.03
2018-03-06T10:07:37.037Z,95.87
2018-03-06T10:10:05.712Z,99.83
2018-03-06T10:12:34.199Z,86.73
2018-03-06T10:15:02.700Z,88.47
2018-03-06T10:17:31.212Z,86.33
2018-03-06T10:19:59.749Z,84.10
2018-03-06T10:22:28.285Z,88.80
2018-03-06T10:24:57.146Z,87.03
2018-03-06T10:27:27.650Z,87.37
2018-03-06T10:29:56.131Z,84.83
2018-03-06T10:32:24.604Z,79.17
2018-03-06T10:34:53.189Z,77.83
2018-03-06T10:37:21.673Z,78.10
2018-03-06T10:39:50.196Z,87.20
2018-03-06T10:42:18.830Z,79.63
2018-03-06T10:44:47.445Z,89.93
2018-03-06T10:47:15.965Z,84.40
2018-03-06T10:49:44.397Z,86.67
2018-03-06T10:52:13.326Z,87.90
2018-03-06T10:54:41.898Z,83.33
2018-03-06T10:57:10.467Z,83.93
2018-03-06T10:59:38.940Z,99.10
2018-03-06T11:02:07.708Z,90.93
2018-03-06T11:04:36.329Z,94.40
2018-03-06T11:07:04.808Z,88.97
2018-03-06T11:09:33.292Z,94.63
2018-03-06T11:12:01.865Z,95.63
2018-03-06T11:14:32.707Z,89.27
2018-03-06T11:17:01.226Z,89.60
2018-03-06T11:19:29.730Z,98.07
2018-03-06T11:21:58.257Z,94.27
2018-03-06T11:24:28.783Z,97.80
2018-03-06T11:26:57.234Z,101.10
2018-03-06T11:29:25.646Z,97.27
2018-03-06T11:31:54.154Z,99.57
2018-03-06T11:34:22.598Z,109.30
2018-03-06T11:36:51.146Z,97.17
2018-03-06T11:39:19.699Z,95.93
2018-03-06T11:41:48.245Z,95.03
2018-03-06T11:44:16.723Z,94.63
2018-03-06T11:46:45.247Z,102.23
2018-03-06T11:49:13.895Z,101.23
2018-03-06T11:51:42.654Z,106.53
2018-03-06T11:54:12.204Z,101.97
2018-03-06T11:56:40.769Z,109.70
2018-03-06T11:59:09.550Z,94.43
2018-03-06T12:01:38.238Z,94.80
2018-03-06T12:04:06.875Z,91.27
2018-03-06T12:06:36.039Z,100.83
2018-03-06T12:09:04.603Z,110.30
2018-03-06T12:11:33.060Z,103.30
2018-03-06T12:14:01.559Z,98.40
2018-03-06T12:16:30.116Z,100.37
2018-03-06T12:18:59.448Z,92.77
2018-03-06T12:21:28.491Z,91.57
2018-03-06T12:23:57.050Z,93.47
2018-03-06T12:26:25.592Z,87.03
2018-03-06T12:32:05.459Z,90.50
2018-03-06T12:34:35.476Z,109.10
2018-03-06T12:37:09.755Z,74.37
2018-03-06T12:39:39.018Z,87.20
2018-03-06T12:42:07.678Z,85.47
2018-03-06T12:44:36.197Z,91.53
2018-03-06T12:47:25.427Z,90.93
2018-03-06T12:49:58.921Z,114.70
2018-03-06T12:52:28.323Z,89.27
2018-03-06T12:54:56.803Z,91.77
2018-03-06T12:57:25.261Z,96.03
2018-03-06T12:59:56.458Z,92.63
2018-03-06T13:02:25.066Z,94.97
2018-03-06T13:04:53.599Z,92.73
2018-03-06T13:07:24.172Z,80.73
2018-03-06T13:09:57.964Z,89.83
2018-03-06T13:12:26.849Z,81.50
2018-03-06T13:14:56.463Z,87.20
2018-03-06T13:17:26.507Z,83.80
2018-03-06T13:20:06.087Z,88.28
2018-03-06T13:22:41.843Z,89.55
2018-03-06T13:25:10.420Z,87.25
2018-03-06T13:28:01.839Z,92.25
2018-03-06T13:33:30.318Z,96.20
2018-03-06T13:39:30.912Z,87.65
2018-03-06T13:41:59.505Z,100.18
2018-03-06T13:47:33.241Z,94.87
2018-03-06T13:50:02.201Z,95.82
2018-03-06T13:52:32.253Z,79.22
2018-03-06T13:57:58.356Z,96.72
2018-03-06T14:00:30.243Z,96.55
2018-03-06T14:03:00.643Z,85.85
2018-03-06T14:05:29.562Z,92.07
2018-03-06T14:08:04.182Z,79.95
2018-03-06T14:10:38.579Z,108.12
2018-03-06T14:13:08.035Z,100.50
2018-03-06T14:15:37.035Z,103.38
2018-03-06T14:18:06.336Z,93.40
2018-03-06T14:20:36.805Z,91.12
2018-03-06T14:23:05.335Z,93.85
2018-03-06T14:25:33.744Z,91.15
2018-03-06T14:28:04.294Z,81.97
2018-03-06T14:30:32.720Z,104.05
2018-03-06T14:33:01.161Z,96.37
2018-03-06T14:35:29.868Z,93.53
2018-03-06T14:37:58.328Z,116.88
2018-03-06T14:40:27.320Z,86.78
2018-03-06T14:42:59.389Z,103.25
2018-03-06T14:45:28.272Z,96.43
2018-03-06T14:47:56.958Z,85.70
2018-03-06T14:50:25.417Z,91.60
2018-03-06T14:52:53.833Z,98.00
2018-03-06T14:55:22.331Z,109.82
2018-03-06T14:57:51.605Z,92.57
2018-03-06T15:00:20.220Z,91.18
2018-03-06T15:02:48.729Z,102.12
2018-03-06T15:05:18.553Z,98.40
2018-03-06T15:07:47.070Z,101.32
2018-03-06T15:10:15.750Z,101.30
2018-03-06T15:12:45.017Z,100.78
2018-03-06T15:15:13.949Z,114.62
2018-03-06T15:17:42.637Z,109.63
2018-03-06T15:20:11.891Z,106.37
2018-03-06T15:22:40.506Z,107.40
2018-03-06T15:25:10.066Z,109.90
2018-03-06T15:27:39.137Z,106.97
2018-03-06T15:30:07.755Z,113.93
2018-03-06T15:32:38.040Z,120.22
2018-03-06T15:35:07.348Z,101.05
2018-03-06T15:37:38.928Z,107.18
2018-03-06T15:40:09.469Z,103.65
2018-03-06T15:42:38.257Z,106.15
2018-03-06T15:45:07.444Z,103.00
2018-03-06T15:47:36.069Z,108.57
2018-03-06T15:50:04.757Z,107.78
2018-03-06T15:52:33.354Z,103.38
2018-03-06T15:55:02.692Z,110.47
2018-03-06T15:57:31.176Z,108.35
2018-03-06T16:00:00.843Z,103.62
2018-03-06T16:02:30.175Z,111.40
2018-03-06T16:04:58.819Z,106.93
2018-03-06T16:07:27.404Z,104.57
2018-03-06T16:09:55.979Z,116.12
2018-03-06T16:12:24.539Z,101.68
2018-03-06T16:14:53.812Z,111.10
2018-03-06T16:17:22.823Z,117.25
2018-03-06T16:19:51.398Z,125.10
2018-03-06T16:22:19.984Z,135.88
2018-03-06T16:24:49.673Z,122.95
2018-03-06T16:27:18.367Z,130.10
2018-03-06T16:29:46.976Z,128.80
2018-03-06T16:32:15.853Z,134.50
2018-03-06T16:34:44.729Z,137.05
2018-03-06T16:37:14.660Z,132.80
2018-03-06T16:39:43.339Z,145.60
2018-03-06T16:42:12.237Z,149.12
2018-03-06T16:44:44.037Z,139.25
2018-03-06T16:47:13.969Z,140.23
2018-03-06T16:49:43.027Z,143.45
2018-03-06T16:52:15.215Z,153.95
2018-03-06T16:54:44.208Z,166.15
2018-03-06T16:57:15.635Z,141.95
2018-03-06T16:59:47.058Z,160.88
2018-03-06T17:02:16.354Z,149.25
2018-03-06T17:04:45.725Z,147.32
2018-03-06T17:07:16.205Z,154.25
2018-03-06T17:09:45.966Z,143.80
2018-03-06T17:12:15.813Z,149.10
2018-03-06T17:14:44.931Z,140.88
2018-03-06T17:17:14.538Z,149.82
2018-03-06T17:19:43.100Z,139.00
2018-03-06T17:22:11.658Z,150.07
2018-03-06T17:24:42.218Z,144.98
2018-03-06T17:27:13.837Z,152.55
2018-03-06T17:29:44.473Z,161.20
2018-03-06T17:32:14.312Z,141.23
2018-03-06T17:34:43.574Z,158.23
2018-03-06T17:37:12.464Z,136.68
2018-03-06T17:39:42.697Z,157.57
2018-03-06T17:42:13.656Z,142.05
2018-03-06T17:44:42.633Z,139.00
2018-03-06T17:47:11.647Z,138.65
2018-03-06T17:49:43.196Z,149.18
2018-03-06T17:52:11.855Z,150.80
2018-03-06T17:54:43.518Z,152.25
2018-03-06T17:57:13.277Z,150.10
2018-03-06T17:59:43.446Z,137.43
2018-03-06T18:02:15.333Z,153.55
2018-03-06T18:04:44.085Z,157.02
2018-03-06T18:07:15.098Z,162.30
2018-03-06T18:09:46.743Z,163.18
2018-03-06T18:12:16.486Z,151.85
2018-03-06T18:14:45.096Z,153.50
2018-03-06T18:17:15.610Z,164.13
2018-03-06T18:19:46.682Z,172.00
2018-03-06T18:22:19.873Z,177.55
2018-03-06T18:24:49.026Z,163.23
2018-03-06T18:27:17.634Z,178.38
2018-03-06T18:29:46.505Z,186.02
2018-03-06T18:32:17.183Z,181.48
2018-03-06T18:34:46.226Z,174.73
2018-03-06T18:37:16.562Z,164.37
2018-03-06T18:39:45.590Z,164.62
2018-03-06T18:42:14.100Z,169.27
2018-03-06T18:44:49.201Z,161.25
2018-03-06T18:47:21.687Z,191.00
2018-03-06T19:32:11.089Z,168.62
2018-03-06T19:34:39.733Z,161.65
2018-03-06T19:37:08.493Z,168.50
2018-03-06T19:39:37.574Z,157.75
2018-03-06T19:42:06.062Z,150.30
2018-03-06T19:44:34.599Z,162.52
2018-03-06T19:47:03.591Z,163.70
2018-03-06T19:49:33.273Z,149.55
2018-03-06T19:52:01.752Z,162.82
2018-03-06T19:54:30.749Z,180.45
2018-03-06T19:56:59.458Z,156.40
2018-03-06T19:59:27.910Z,169.15
2018-03-06T20:01:56.422Z,154.55
2018-03-06T20:04:25.135Z,161.85
2018-03-06T20:06:54.163Z,163.00
2018-03-06T20:09:23.656Z,181.52
2018-03-06T20:11:52.315Z,159.37
2018-03-06T20:14:27.502Z,170.87
2018-03-06T20:16:56.087Z,176.37
2018-03-06T20:19:30.291Z,160.25
2018-03-06T20:21:59.869Z,154.65
2018-03-06T20:24:33.945Z,163.32
2018-03-06T20:27:02.496Z,161.95
2018-03-06T20:29:31.050Z,173.60
2018-03-06T20:32:06.447Z,160.45
2018-03-06T20:34:41.994Z,167.87
2018-03-06T20:37:12.824Z,161.62
2018-03-06T20:39:47.531Z,160.80
2018-03-06T20:42:18.681Z,162.70
2018-03-06T20:44:58.117Z,166.20
2018-03-06T20:47:28.727Z,169.50
2018-03-06T20:49:58.474Z,157.02
2018-03-06T20:52:31.385Z,179.98
2018-03-06T20:55:06.278Z,159.98
2018-03-06T20:57:35.198Z,171.15
2018-03-06T21:00:14.205Z,165.48
2018-03-06T21:02:48.114Z,161.05
2018-03-06T21:05:18.565Z,167.95
2018-03-06T21:07:48.164Z,159.70
2018-03-06T21:10:17.319Z,181.70
2018-03-06T21:12:46.135Z,171.43
2018-03-06T21:15:15.499Z,172.43
2018-03-06T21:17:47.769Z,176.40
2018-03-06T21:20:17.001Z,164.43
2018-03-06T21:22:51.329Z,170.82
2018-03-06T21:25:20.208Z,170.62
2018-03-06T21:27:49.000Z,155.95
2018-03-06T21:30:17.780Z,183.32
2018-03-06T21:32:48.232Z,160.02
2018-03-06T21:35:17.177Z,174.43
2018-03-06T21:37:48.592Z,181.57
2018-03-06T21:40:17.303Z,170.73
2018-03-06T21:42:51.279Z,172.37
2018-03-06T21:45:20.194Z,181.90
2018-03-06T21:47:48.776Z,172.85
2018-03-06T21:50:18.408Z,174.00
2018-03-06T21:52:47.757Z,172.10
2018-03-06T21:55:16.822Z,169.50
2018-03-06T21:57:47.060Z,185.27
2018-03-06T22:00:18.473Z,183.02
2018-03-06T22:02:49.004Z,173.10
2018-03-06T22:05:18.531Z,177.87
2018-03-06T22:07:47.176Z,163.12
2018-03-06T22:10:17.127Z,185.00
2018-03-06T22:12:46.705Z,180.93
2018-03-06T22:15:17.858Z,159.65
2018-03-06T22:17:46.771Z,165.02
2018-03-06T22:20:16.003Z,176.07
2018-03-06T22:22:45.266Z,164.18
2018-03-06T22:25:14.729Z,154.38
2018-03-06T22:27:46.485Z,166.65
2018-03-06T22:30:15.480Z,186.32
2018-03-06T22:32:44.087Z,178.18
2018-03-06T22:35:12.875Z,168.35
2018-03-06T22:37:41.351Z,165.55
2018-03-06T22:40:10.633Z,174.55
2018-03-06T22:42:41.729Z,152.27
2018-03-06T22:45:10.276Z,182.07
2018-03-06T22:47:38.850Z,168.23
2018-03-06T22:50:07.630Z,157.07
2018-03-06T22:52:36.111Z,163.23
2018-03-06T22:55:05.108Z,169.07
2018-03-06T22:57:34.358Z,170.35
2018-03-06T23:00:03.963Z,160.45
2018-03-06T23:02:33.289Z,173.43
2018-03-06T23:05:02.630Z,161.98
2018-03-06T23:07:31.198Z,162.23
2018-03-06T23:09:59.720Z,160.88
2018-03-06T23:12:28.370Z,155.00
2018-03-06T23:14:56.836Z,156.77
2018-03-06T23:17:25.437Z,167.62
2018-03-06T23:19:54.467Z,156.98
2018-03-06T23:22:23.000Z,180.02
2018-03-06T23:24:51.484Z,160.68
2018-03-06T23:27:19.969Z,163.43
2018-03-06T23:29:48.474Z,169.82
2018-03-06T23:32:17.313Z,157.73
2018-03-06T23:34:46.584Z,163.75
2018-03-06T23:37:15.020Z,176.35
2018-03-06T23:39:43.501Z,169.93
2018-03-06T23:42:12.015Z,170.00
2018-03-06T23:44:40.774Z,169.05
2018-03-06T23:47:09.460Z,158.18
2018-03-06T23:49:38.102Z,179.38
2018-03-06T23:52:06.798Z,170.10
2018-03-06T23:54:35.411Z,164.13
2018-03-06T23:57:03.990Z,166.20
2018-03-06T23:59:33.192Z,167.07
